createdAt,value
2022-08-11T00:01:20.502Z,101510.00
2022-08-11T00:06:40.831Z,101501.91
2022-08-11T00:11:48.691Z,101506.56
2022-08-11T00:17:08.839Z,101502.28
2022-08-11T00:22:11.978Z,101501.34
2022-08-11T00:27:14.293Z,101500.00
2022-08-11T00:32:16.248Z,101511.78
2022-08-11T00:37:23.066Z,101497.91
2022-08-11T00:42:32.873Z,101495.72
2022-08-11T00:48:02.796Z,101502.44
2022-08-11T00:53:16.653Z,101502.50
2022-08-11T00:58:38.772Z,101506.78
2022-08-11T01:03:59.791Z,101497.81
2022-08-11T01:09:25.176Z,101505.22
2022-08-11T01:15:14.527Z,101503.53
2022-08-11T01:20:57.204Z,101508.00
2022-08-11T01:26:36.243Z,101511.94
2022-08-11T01:31:37.698Z,101506.47
2022-08-11T01:37:02.778Z,101500.75
2022-08-11T01:42:22.372Z,101504.25
2022-08-11T01:47:38.207Z,101503.84
2022-08-11T01:53:26.699Z,101506.28
2022-08-11T01:58:44.561Z,101506.44
2022-08-11T02:04:18.863Z,101510.34
2022-08-11T02:09:33.494Z,101508.16
2022-08-11T02:14:42.599Z,101517.38
2022-08-11T02:20:41.884Z,101513.38
2022-08-11T02:25:56.183Z,101520.00
2022-08-11T02:31:12.022Z,101523.69
2022-08-11T02:36:42.693Z,101511.81
2022-08-11T02:41:58.600Z,101512.25
2022-08-11T02:47:13.541Z,101506.28
2022-08-11T02:52:25.895Z,101516.91
2022-08-11T02:57:40.384Z,101513.88
2022-08-11T03:03:04.209Z,101518.06
2022-08-11T03:08:15.617Z,101518.75
2022-08-11T03:13:25.601Z,101513.19
2022-08-11T03:18:37.446Z,101518.84
2022-08-11T03:23:55.806Z,101509.84
2022-08-11T03:29:18.270Z,101510.63
2022-08-11T03:34:28.202Z,101513.28
2022-08-11T03:39:56.213Z,101507.81
2022-08-11T03:45:23.476Z,101508.84
2022-08-11T03:50:55.138Z,101509.44
2022-08-11T03:56:28.165Z,101511.31
2022-08-11T04:02:08.300Z,101515.34
2022-08-11T04:07:18.676Z,101517.44
2022-08-11T04:12:38.463Z,101519.47
2022-08-11T04:18:05.156Z,101513.53
2022-08-11T04:24:36.635Z,101517.22
2022-08-11T04:29:20.099Z,101515.66
2022-08-11T04:34:36.780Z,101511.97
2022-08-11T04:40:18.734Z,101520.44
2022-08-11T04:46:01.802Z,101527.75
2022-08-11T04:51:30.815Z,101535.50
2022-08-11T04:56:35.083Z,101538.53
2022-08-11T05:01:51.003Z,101536.63
2022-08-11T05:07:29.419Z,101538.56
2022-08-11T05:12:42.001Z,101541.50
2022-08-11T05:18:02.419Z,101537.53
2022-08-11T05:23:08.941Z,101536.81
2022-08-11T05:28:16.743Z,101555.44
2022-08-11T05:33:25.475Z,101551.28
2022-08-11T05:38:33.272Z,101556.84
2022-08-11T05:43:39.819Z,101557.03
2022-08-11T05:49:01.865Z,101568.66
2022-08-11T05:54:27.894Z,101565.19
2022-08-11T05:59:29.476Z,101572.53
2022-08-11T06:04:32.373Z,101569.22
2022-08-11T06:09:36.125Z,101567.94
2022-08-11T06:14:45.607Z,101570.88
2022-08-11T06:19:48.613Z,101568.34
2022-08-11T06:29:58.796Z,101560.09
2022-08-11T06:35:07.485Z,101568.13
2022-08-11T06:40:25.723Z,101579.59
2022-08-11T06:45:52.259Z,101578.72
2022-08-11T06:51:02.210Z,101569.03
2022-08-11T06:56:04.207Z,101571.84
2022-08-11T07:01:13.806Z,101576.69
2022-08-11T07:06:28.378Z,101568.91
2022-08-11T07:12:00.214Z,101580.53
2022-08-11T07:17:02.851Z,101566.81
2022-08-11T07:22:07.492Z,101571.69
2022-08-11T07:27:14.362Z,101569.75
2022-08-11T07:32:26.793Z,101564.91
2022-08-11T07:37:32.384Z,101562.47
2022-08-11T07:42:34.741Z,101560.44
2022-08-11T07:47:39.391Z,101551.19
2022-08-11T07:52:41.322Z,101557.94
2022-08-11T07:58:14.797Z,101554.34
2022-08-11T08:03:09.804Z,101552.63
2022-08-11T08:08:14.620Z,101557.09
2022-08-11T08:13:19.075Z,101563.88
2022-08-11T08:18:27.545Z,101559.84
2022-08-11T08:23:29.697Z,101563.56
2022-08-11T08:28:33.741Z,101560.13
2022-08-11T08:33:35.502Z,101550.72
2022-08-11T08:38:52.285Z,101562.69
2022-08-11T08:44:15.167Z,101560.91
2022-08-11T08:49:35.348Z,101554.00
2022-08-11T08:54:44.532Z,101550.94
2022-08-11T08:59:49.802Z,101556.16
2022-08-11T09:04:53.754Z,101557.06
2022-08-11T09:09:58.898Z,101558.09
2022-08-11T09:15:04.187Z,101556.38
2022-08-11T09:20:08.953Z,101557.66
2022-08-11T09:25:10.624Z,101547.00
2022-08-11T09:30:12.279Z,101551.00
2022-08-11T09:35:14.154Z,101555.97
2022-08-11T09:40:16.436Z,101548.69
2022-08-11T09:45:19.984Z,101546.47
2022-08-11T09:50:22.656Z,101544.59
2022-08-11T09:55:25.117Z,101538.16
2022-08-11T10:00:34.956Z,101531.03
2022-08-11T10:05:38.241Z,101523.19
2022-08-11T10:10:40.981Z,101509.59
2022-08-11T10:15:59.694Z,101505.06
2022-08-11T10:21:40.239Z,101509.88
2022-08-11T10:26:43.478Z,101495.41
2022-08-11T10:31:59.372Z,101489.28
2022-08-11T10:37:07.204Z,101488.13
2022-08-11T10:42:34.962Z,101483.47
2022-08-11T10:47:39.328Z,101487.06
2022-08-11T10:52:51.512Z,101488.91
2022-08-11T10:58:04.678Z,101479.28
2022-08-11T11:03:23.161Z,101464.59
2022-08-11T11:08:29.589Z,101463.47
2022-08-11T11:13:35.234Z,101446.31
2022-08-11T11:18:38.043Z,101440.75
2022-08-11T11:23:39.518Z,101423.38
2022-08-11T11:28:59.070Z,101433.38
2022-08-11T11:34:32.152Z,101427.97
2022-08-11T11:39:36.594Z,101414.91
2022-08-11T11:44:39.827Z,101405.19
2022-08-11T11:49:43.676Z,101408.41
2022-08-11T11:54:51.972Z,101398.31
2022-08-11T11:59:54.513Z,101392.66
2022-08-11T12:04:56.744Z,101393.41
2022-08-11T12:09:59.119Z,101388.16
2022-08-11T12:15:01.210Z,101391.97
2022-08-11T12:20:31.872Z,101364.63
2022-08-11T12:25:32.215Z,101361.06
2022-08-11T12:30:34.032Z,101345.38
2022-08-11T12:35:37.078Z,101355.44
2022-08-11T12:41:13.751Z,101351.59
2022-08-11T12:46:05.685Z,101347.31
2022-08-11T12:51:10.798Z,101344.81
2022-08-11T12:56:12.998Z,101334.34
2022-08-11T13:01:15.437Z,101325.00
2022-08-11T13:06:18.714Z,101324.75
2022-08-11T13:11:21.441Z,101318.97
2022-08-11T13:16:31.827Z,101318.50
2022-08-11T13:21:33.585Z,101316.78
2022-08-11T13:26:46.862Z,101308.59
2022-08-11T13:31:55.247Z,101300.31
2022-08-11T13:37:00.952Z,101288.41
2022-08-11T13:42:04.510Z,101284.09
2022-08-11T13:47:11.572Z,101284.91
2022-08-11T13:52:15.774Z,101274.28
2022-08-11T13:58:08.877Z,101277.16
2022-08-11T14:02:43.308Z,101274.69
2022-08-11T14:08:00.300Z,101264.38
2022-08-11T14:13:12.787Z,101266.81
2022-08-11T14:18:25.931Z,101260.44
2022-08-11T14:23:55.347Z,101235.28
2022-08-11T14:29:07.441Z,101242.50
2022-08-11T14:34:10.557Z,101230.34
2022-08-11T14:39:15.458Z,101224.63
2022-08-11T14:44:18.120Z,101232.69
2022-08-11T14:49:20.467Z,101224.44
2022-08-11T14:54:28.027Z,101220.75
2022-08-11T14:59:30.341Z,101211.44
2022-08-11T15:04:35.851Z,101210.78
2022-08-11T15:10:02.385Z,101215.88
2022-08-11T15:15:06.052Z,101206.56
2022-08-11T15:20:11.444Z,101206.13
2022-08-11T15:25:13.360Z,101192.38
2022-08-11T15:30:32.784Z,101188.75
2022-08-11T15:35:39.131Z,101171.81
2022-08-11T15:40:43.463Z,101168.50
2022-08-11T15:45:50.144Z,101177.13
2022-08-11T15:50:54.277Z,101164.78
2022-08-11T15:55:56.481Z,101166.38
2022-08-11T16:01:04.275Z,101157.41
2022-08-11T16:06:12.867Z,101151.59
2022-08-11T16:11:15.648Z,101142.84
2022-08-11T16:16:17.798Z,101131.59
2022-08-11T16:21:40.143Z,101143.06
2022-08-11T16:27:09.614Z,101136.69
2022-08-11T16:32:07.657Z,101143.06
2022-08-11T16:37:09.589Z,101134.34
2022-08-11T16:43:05.309Z,101131.25
2022-08-11T16:48:02.110Z,101120.72
2022-08-11T16:52:56.412Z,101127.91
2022-08-11T16:57:59.388Z,101120.34
2022-08-11T17:03:03.088Z,101114.19
2022-08-11T17:08:07.366Z,101117.63
2022-08-11T17:13:10.620Z,101105.69
2022-08-11T17:18:15.757Z,101103.03
2022-08-11T17:23:17.363Z,101101.50
2022-08-11T17:28:21.388Z,101093.59
2022-08-11T17:33:27.410Z,101094.53
2022-08-11T17:38:31.297Z,101098.53
2022-08-11T17:43:34.136Z,101100.25
2022-08-11T17:48:47.891Z,101103.94
2022-08-11T17:54:09.938Z,101099.56
2022-08-11T17:59:13.469Z,101100.53
2022-08-11T18:04:17.308Z,101099.00
2022-08-11T18:09:21.197Z,101104.16
2022-08-11T18:14:24.141Z,101108.09
2022-08-11T18:19:25.768Z,101113.63
2022-08-11T18:24:32.916Z,101110.41
2022-08-11T18:29:42.080Z,101116.56
2022-08-11T18:34:45.801Z,101115.44
2022-08-11T18:40:04.615Z,101117.97
2022-08-11T18:45:11.162Z,101117.53
2022-08-11T18:50:14.867Z,101120.78
2022-08-11T18:55:23.907Z,101119.84
2022-08-11T19:00:26.720Z,101112.75
2022-08-11T19:06:35.662Z,101129.03
2022-08-11T19:10:56.138Z,101134.19
2022-08-11T19:15:57.919Z,101139.81
2022-08-11T19:21:00.474Z,101152.44
2022-08-11T19:26:04.361Z,101160.63
2022-08-11T19:31:08.598Z,101162.88
2022-08-11T19:36:10.325Z,101164.59
2022-08-11T19:41:16.112Z,101176.09
2022-08-11T19:46:23.987Z,101175.91
2022-08-11T19:51:27.037Z,101183.78
2022-08-11T19:56:29.775Z,101179.59
2022-08-11T20:01:31.503Z,101185.00
2022-08-11T20:06:36.454Z,101181.25
2022-08-11T20:11:43.009Z,101188.22
2022-08-11T20:16:45.148Z,101190.09
2022-08-11T20:21:47.774Z,101186.31
2022-08-11T20:26:50.565Z,101194.72
2022-08-11T20:31:52.978Z,101198.19
2022-08-11T20:36:55.347Z,101195.97
2022-08-11T20:41:59.652Z,101196.72
2022-08-11T20:47:03.338Z,101202.25
2022-08-11T20:52:07.226Z,101191.03
2022-08-11T20:57:13.303Z,101195.41
2022-08-11T21:02:17.979Z,101200.69
2022-08-11T21:07:28.146Z,101201.78
2022-08-11T21:12:31.518Z,101204.53
2022-08-11T21:17:36.257Z,101204.91
2022-08-11T21:23:06.377Z,101205.22
2022-08-11T21:28:10.820Z,101200.06
2022-08-11T21:33:13.531Z,101205.84
2022-08-11T21:38:17.904Z,101199.31
2022-08-11T21:43:21.813Z,101200.47
2022-08-11T21:48:26.948Z,101192.41
2022-08-11T21:53:29.666Z,101207.81
2022-08-11T21:58:32.494Z,101210.34
2022-08-11T22:03:50.024Z,101204.66
2022-08-11T22:08:52.098Z,101205.41
2022-08-11T22:14:06.007Z,101199.44
2022-08-11T22:19:10.253Z,101212.56
2022-08-11T22:24:12.300Z,101211.97
2022-08-11T22:29:20.001Z,101210.03
2022-08-11T22:34:52.560Z,101214.75
2022-08-11T22:40:01.870Z,101215.09
2022-08-11T22:45:05.285Z,101216.34
2022-08-11T22:50:09.955Z,101217.47
2022-08-11T22:55:12.986Z,101212.88
2022-08-11T23:00:16.620Z,101212.78
2022-08-11T23:05:19.255Z,101219.34
2022-08-11T23:10:21.882Z,101219.72
2022-08-11T23:15:24.574Z,101219.78
2022-08-11T23:20:36.430Z,101214.25
2022-08-11T23:25:45.489Z,101218.50
2022-08-11T23:30:47.568Z,101217.72
2022-08-11T23:35:56.558Z,101216.41
2022-08-11T23:41:00.100Z,101225.88
2022-08-11T23:46:01.642Z,101225.97
2022-08-11T23:51:04.186Z,101215.22
2022-08-11T23:56:06.316Z,101216.50
